Terminal Aerodrome Forecast
Issued by NWS

Home | Current Version | Previous Version | Text Only | Print | Product List | Glossary On
Versions: 1 2 3 4 5 6 7 8 9 10 11 12 13
000
FTUS44 KEPZ 061700 RRA
TAFDMN
TAF
KDMN 061755Z 0618/0718 25010G17KT P6SM FEW080 FEW200
     FM062000 24012G23KT P6SM FEW100 FEW200
     FM070300 27012KT P6SM FEW120
     FM070900 30008KT P6SM FEW120
     FM071600 25010G20KT P6SM FEW080=

USA.gov is the U.S. government's official web portal to all federal, state and local government web resources and services.